sensor_id;sensor_type;location;lat;lon;timestamp;P1;durP1;ratioP1;P2;durP2;ratioP2
12088;SDS011;6107;49.078;8.578;2022-10-29T00:01:41;9.70;;;4.10;;
12088;SDS011;6107;49.078;8.578;2022-10-29T00:04:07;12.10;;;4.40;;
12088;SDS011;6107;49.078;8.578;2022-10-29T00:06:32;10.23;;;4.00;;
12088;SDS011;6107;49.078;8.578;2022-10-29T00:08:58;10.67;;;4.47;;
12088;SDS011;6107;49.078;8.578;2022-10-29T00:11:23;8.80;;;4.17;;
12088;SDS011;6107;49.078;8.578;2022-10-29T00:13:52;12.43;;;4.70;;
12088;SDS011;6107;49.078;8.578;2022-10-29T00:16:20;11.83;;;4.30;;
12088;SDS011;6107;49.078;8.578;2022-10-29T00:18:47;9.83;;;4.60;;
12088;SDS011;6107;49.078;8.578;2022-10-29T00:21:13;9.30;;;4.20;;
12088;SDS011;6107;49.078;8.578;2022-10-29T00:23:43;11.00;;;4.40;;
12088;SDS011;6107;49.078;8.578;2022-10-29T00:26:09;7.53;;;4.27;;
12088;SDS011;6107;49.078;8.578;2022-10-29T00:28:35;11.43;;;4.20;;
12088;SDS011;6107;49.078;8.578;2022-10-29T00:31:04;10.80;;;4.90;;
12088;SDS011;6107;49.078;8.578;2022-10-29T00:33:49;10.87;;;5.63;;
12088;SDS011;6107;49.078;8.578;2022-10-29T00:36:17;14.03;;;5.10;;
12088;SDS011;6107;49.078;8.578;2022-10-29T00:38:46;11.43;;;4.83;;
12088;SDS011;6107;49.078;8.578;2022-10-29T00:41:13;9.20;;;4.20;;
12088;SDS011;6107;49.078;8.578;2022-10-29T00:43:42;12.63;;;5.50;;
12088;SDS011;6107;49.078;8.578;2022-10-29T00:46:13;11.37;;;4.80;;
12088;SDS011;6107;49.078;8.578;2022-10-29T00:48:53;11.93;;;4.97;;
12088;SDS011;6107;49.078;8.578;2022-10-29T00:51:20;14.63;;;6.07;;
12088;SDS011;6107;49.078;8.578;2022-10-29T00:53:59;13.13;;;5.03;;
12088;SDS011;6107;49.078;8.578;2022-10-29T00:56:28;11.37;;;5.03;;
12088;SDS011;6107;49.078;8.578;2022-10-29T00:58:56;9.63;;;4.87;;
12088;SDS011;6107;49.078;8.578;2022-10-29T01:01:22;11.77;;;6.23;;
12088;SDS011;6107;49.078;8.578;2022-10-29T01:03:48;12.60;;;5.63;;
12088;SDS011;6107;49.078;8.578;2022-10-29T01:06:15;10.37;;;5.40;;
12088;SDS011;6107;49.078;8.578;2022-10-29T01:08:40;10.27;;;5.57;;
12088;SDS011;6107;49.078;8.578;2022-10-29T01:11:41;12.40;;;5.40;;
12088;SDS011;6107;49.078;8.578;2022-10-29T01:14:18;11.10;;;5.10;;
12088;SDS011;6107;49.078;8.578;2022-10-29T01:16:57;12.33;;;5.70;;
12088;SDS011;6107;49.078;8.578;2022-10-29T01:22:32;20.50;;;6.07;;
12088;SDS011;6107;49.078;8.578;2022-10-29T01:33:36;12.10;;;5.57;;
12088;SDS011;6107;49.078;8.578;2022-10-29T01:38:53;13.57;;;5.67;;
12088;SDS011;6107;49.078;8.578;2022-10-29T01:44:14;15.90;;;6.17;;
12088;SDS011;6107;49.078;8.578;2022-10-29T01:47:00;10.47;;;5.50;;
12088;SDS011;6107;49.078;8.578;2022-10-29T01:49:28;11.57;;;5.13;;
12088;SDS011;6107;49.078;8.578;2022-10-29T01:52:00;12.13;;;5.27;;
12088;SDS011;6107;49.078;8.578;2022-10-29T01:54:28;12.17;;;5.60;;
12088;SDS011;6107;49.078;8.578;2022-10-29T01:56:54;16.30;;;5.30;;
12088;SDS011;6107;49.078;8.578;2022-10-29T01:59:21;13.47;;;5.53;;
12088;SDS011;6107;49.078;8.578;2022-10-29T02:07:51;11.30;;;5.63;;
12088;SDS011;6107;49.078;8.578;2022-10-29T02:13:15;14.40;;;5.80;;
12088;SDS011;6107;49.078;8.578;2022-10-29T02:15:44;8.47;;;5.07;;
12088;SDS011;6107;49.078;8.578;2022-10-29T02:18:12;15.23;;;5.63;;
12088;SDS011;6107;49.078;8.578;2022-10-29T02:20:42;15.27;;;5.17;;
12088;SDS011;6107;49.078;8.578;2022-10-29T02:23:08;12.00;;;5.17;;
12088;SDS011;6107;49.078;8.578;2022-10-29T02:25:34;11.60;;;5.13;;
12088;SDS011;6107;49.078;8.578;2022-10-29T02:28:00;12.17;;;5.07;;
12088;SDS011;6107;49.078;8.578;2022-10-29T02:30:26;13.80;;;5.00;;
12088;SDS011;6107;49.078;8.578;2022-10-29T02:32:52;16.93;;;5.37;;
12088;SDS011;6107;49.078;8.578;2022-10-29T02:35:17;13.27;;;5.10;;
12088;SDS011;6107;49.078;8.578;2022-10-29T02:37:43;9.43;;;5.00;;
12088;SDS011;6107;49.078;8.578;2022-10-29T02:40:08;10.83;;;5.33;;
12088;SDS011;6107;49.078;8.578;2022-10-29T02:42:34;14.30;;;4.93;;
12088;SDS011;6107;49.078;8.578;2022-10-29T02:45:00;10.73;;;4.93;;
12088;SDS011;6107;49.078;8.578;2022-10-29T02:47:25;11.27;;;4.47;;
12088;SDS011;6107;49.078;8.578;2022-10-29T02:49:52;12.80;;;4.63;;
12088;SDS011;6107;49.078;8.578;2022-10-29T02:52:17;8.63;;;4.83;;
12088;SDS011;6107;49.078;8.578;2022-10-29T02:54:43;10.33;;;5.47;;
12088;SDS011;6107;49.078;8.578;2022-10-29T02:57:08;8.63;;;5.07;;
12088;SDS011;6107;49.078;8.578;2022-10-29T02:59:34;12.33;;;5.43;;
12088;SDS011;6107;49.078;8.578;2022-10-29T03:01:59;11.70;;;5.80;;
12088;SDS011;6107;49.078;8.578;2022-10-29T03:04:25;10.43;;;5.07;;
12088;SDS011;6107;49.078;8.578;2022-10-29T03:06:51;17.30;;;5.30;;
12088;SDS011;6107;49.078;8.578;2022-10-29T03:09:16;14.27;;;5.47;;
12088;SDS011;6107;49.078;8.578;2022-10-29T03:11:42;10.87;;;4.67;;
12088;SDS011;6107;49.078;8.578;2022-10-29T03:14:07;10.90;;;5.23;;
12088;SDS011;6107;49.078;8.578;2022-10-29T03:16:33;12.80;;;5.53;;
12088;SDS011;6107;49.078;8.578;2022-10-29T03:18:58;11.67;;;5.10;;
12088;SDS011;6107;49.078;8.578;2022-10-29T03:21:24;12.70;;;5.23;;
12088;SDS011;6107;49.078;8.578;2022-10-29T03:23:50;12.17;;;4.70;;
12088;SDS011;6107;49.078;8.578;2022-10-29T03:26:15;11.03;;;4.43;;
12088;SDS011;6107;49.078;8.578;2022-10-29T03:28:41;9.40;;;4.77;;
12088;SDS011;6107;49.078;8.578;2022-10-29T03:31:06;9.80;;;4.60;;
12088;SDS011;6107;49.078;8.578;2022-10-29T03:33:32;17.23;;;5.97;;
12088;SDS011;6107;49.078;8.578;2022-10-29T03:36:01;8.30;;;4.93;;
12088;SDS011;6107;49.078;8.578;2022-10-29T03:38:32;12.83;;;4.73;;
12088;SDS011;6107;49.078;8.578;2022-10-29T03:40:58;11.10;;;5.07;;
12088;SDS011;6107;49.078;8.578;2022-10-29T03:43:23;11.27;;;5.10;;
12088;SDS011;6107;49.078;8.578;2022-10-29T03:45:50;14.00;;;5.03;;
12088;SDS011;6107;49.078;8.578;2022-10-29T03:48:20;10.70;;;5.93;;
12088;SDS011;6107;49.078;8.578;2022-10-29T03:50:59;10.87;;;5.10;;
12088;SDS011;6107;49.078;8.578;2022-10-29T03:53:27;14.10;;;4.80;;
12088;SDS011;6107;49.078;8.578;2022-10-29T03:55:53;9.90;;;4.37;;
12088;SDS011;6107;49.078;8.578;2022-10-29T03:58:20;7.63;;;4.37;;
12088;SDS011;6107;49.078;8.578;2022-10-29T04:00:59;13.57;;;5.07;;
12088;SDS011;6107;49.078;8.578;2022-10-29T04:03:27;13.10;;;4.93;;
12088;SDS011;6107;49.078;8.578;2022-10-29T04:05:54;16.93;;;5.23;;
12088;SDS011;6107;49.078;8.578;2022-10-29T04:08:20;11.47;;;4.93;;
12088;SDS011;6107;49.078;8.578;2022-10-29T04:10:46;8.70;;;4.53;;
12088;SDS011;6107;49.078;8.578;2022-10-29T04:13:13;14.40;;;5.80;;
12088;SDS011;6107;49.078;8.578;2022-10-29T04:15:39;12.50;;;5.03;;
12088;SDS011;6107;49.078;8.578;2022-10-29T04:18:05;13.80;;;5.17;;
12088;SDS011;6107;49.078;8.578;2022-10-29T04:20:31;11.93;;;4.97;;
12088;SDS011;6107;49.078;8.578;2022-10-29T04:22:57;12.20;;;5.07;;
12088;SDS011;6107;49.078;8.578;2022-10-29T04:25:23;10.23;;;4.90;;
12088;SDS011;6107;49.078;8.578;2022-10-29T04:27:48;9.03;;;4.37;;
12088;SDS011;6107;49.078;8.578;2022-10-29T04:30:14;8.63;;;4.20;;
12088;SDS011;6107;49.078;8.578;2022-10-29T04:32:40;12.83;;;4.63;;
12088;SDS011;6107;49.078;8.578;2022-10-29T04:35:05;13.90;;;5.40;;
12088;SDS011;6107;49.078;8.578;2022-10-29T04:37:31;14.00;;;5.27;;
12088;SDS011;6107;49.078;8.578;2022-10-29T04:39:56;9.10;;;4.13;;
12088;SDS011;6107;49.078;8.578;2022-10-29T04:42:22;11.87;;;5.00;;
12088;SDS011;6107;49.078;8.578;2022-10-29T04:44:47;8.87;;;4.70;;
12088;SDS011;6107;49.078;8.578;2022-10-29T04:47:13;13.70;;;4.97;;
12088;SDS011;6107;49.078;8.578;2022-10-29T04:49:38;12.87;;;5.17;;
12088;SDS011;6107;49.078;8.578;2022-10-29T04:52:04;11.13;;;4.73;;
12088;SDS011;6107;49.078;8.578;2022-10-29T04:54:29;11.03;;;4.50;;
12088;SDS011;6107;49.078;8.578;2022-10-29T04:56:55;14.30;;;4.97;;
12088;SDS011;6107;49.078;8.578;2022-10-29T04:59:21;9.93;;;5.07;;
12088;SDS011;6107;49.078;8.578;2022-10-29T05:01:46;11.97;;;4.97;;
12088;SDS011;6107;49.078;8.578;2022-10-29T05:04:12;8.83;;;4.70;;
12088;SDS011;6107;49.078;8.578;2022-10-29T05:06:37;6.60;;;4.37;;
12088;SDS011;6107;49.078;8.578;2022-10-29T05:09:03;8.97;;;3.93;;
12088;SDS011;6107;49.078;8.578;2022-10-29T05:11:28;11.77;;;4.97;;
12088;SDS011;6107;49.078;8.578;2022-10-29T05:13:54;7.50;;;3.90;;
12088;SDS011;6107;49.078;8.578;2022-10-29T05:16:19;7.90;;;4.00;;
12088;SDS011;6107;49.078;8.578;2022-10-29T05:18:45;9.23;;;4.40;;
12088;SDS011;6107;49.078;8.578;2022-10-29T05:21:11;10.43;;;4.33;;
12088;SDS011;6107;49.078;8.578;2022-10-29T05:23:36;5.90;;;4.27;;
12088;SDS011;6107;49.078;8.578;2022-10-29T05:26:02;7.07;;;4.33;;
12088;SDS011;6107;49.078;8.578;2022-10-29T05:28:27;10.57;;;4.80;;
12088;SDS011;6107;49.078;8.578;2022-10-29T05:30:53;12.10;;;4.83;;
12088;SDS011;6107;49.078;8.578;2022-10-29T05:33:22;10.33;;;4.43;;
12088;SDS011;6107;49.078;8.578;2022-10-29T05:35:48;9.13;;;4.30;;
12088;SDS011;6107;49.078;8.578;2022-10-29T05:38:14;9.83;;;4.30;;
12088;SDS011;6107;49.078;8.578;2022-10-29T05:40:41;10.67;;;4.43;;
12088;SDS011;6107;49.078;8.578;2022-10-29T05:43:08;11.07;;;4.57;;
12088;SDS011;6107;49.078;8.578;2022-10-29T05:45:35;8.13;;;4.63;;
12088;SDS011;6107;49.078;8.578;2022-10-29T05:48:01;6.93;;;4.30;;
12088;SDS011;6107;49.078;8.578;2022-10-29T05:50:27;7.70;;;4.27;;
12088;SDS011;6107;49.078;8.578;2022-10-29T05:52:54;11.13;;;4.67;;
12088;SDS011;6107;49.078;8.578;2022-10-29T05:55:24;14.30;;;4.87;;
12088;SDS011;6107;49.078;8.578;2022-10-29T05:57:57;9.23;;;4.07;;
12088;SDS011;6107;49.078;8.578;2022-10-29T06:00:24;8.80;;;4.83;;
12088;SDS011;6107;49.078;8.578;2022-10-29T06:02:50;8.17;;;5.07;;
12088;SDS011;6107;49.078;8.578;2022-10-29T06:05:22;11.00;;;5.17;;
12088;SDS011;6107;49.078;8.578;2022-10-29T06:07:52;16.37;;;5.17;;
12088;SDS011;6107;49.078;8.578;2022-10-29T06:10:21;10.60;;;4.40;;
12088;SDS011;6107;49.078;8.578;2022-10-29T06:12:47;10.20;;;4.83;;
12088;SDS011;6107;49.078;8.578;2022-10-29T06:15:13;10.23;;;4.80;;
12088;SDS011;6107;49.078;8.578;2022-10-29T06:17:40;7.93;;;4.67;;
12088;SDS011;6107;49.078;8.578;2022-10-29T06:20:06;8.83;;;4.20;;
12088;SDS011;6107;49.078;8.578;2022-10-29T06:22:32;10.63;;;4.73;;
12088;SDS011;6107;49.078;8.578;2022-10-29T06:24:58;26.27;;;9.13;;
12088;SDS011;6107;49.078;8.578;2022-10-29T06:27:24;13.40;;;5.13;;
12088;SDS011;6107;49.078;8.578;2022-10-29T06:29:50;13.83;;;5.83;;
12088;SDS011;6107;49.078;8.578;2022-10-29T06:32:16;19.93;;;9.03;;
12088;SDS011;6107;49.078;8.578;2022-10-29T06:34:41;122.03;;;43.77;;
12088;SDS011;6107;49.078;8.578;2022-10-29T06:37:07;106.37;;;37.23;;
12088;SDS011;6107;49.078;8.578;2022-10-29T06:39:33;17.43;;;8.50;;
12088;SDS011;6107;49.078;8.578;2022-10-29T06:41:59;14.37;;;6.30;;
12088;SDS011;6107;49.078;8.578;2022-10-29T06:44:25;17.63;;;7.60;;
12088;SDS011;6107;49.078;8.578;2022-10-29T06:46:51;17.13;;;6.27;;
12088;SDS011;6107;49.078;8.578;2022-10-29T06:49:17;14.77;;;6.27;;
12088;SDS011;6107;49.078;8.578;2022-10-29T06:51:43;9.97;;;5.97;;
12088;SDS011;6107;49.078;8.578;2022-10-29T06:54:09;14.93;;;6.30;;
12088;SDS011;6107;49.078;8.578;2022-10-29T06:56:35;36.60;;;15.27;;
12088;SDS011;6107;49.078;8.578;2022-10-29T06:59:01;22.87;;;11.57;;
12088;SDS011;6107;49.078;8.578;2022-10-29T07:01:27;13.03;;;5.93;;
12088;SDS011;6107;49.078;8.578;2022-10-29T07:03:54;12.40;;;6.47;;
12088;SDS011;6107;49.078;8.578;2022-10-29T07:06:20;21.67;;;8.63;;
12088;SDS011;6107;49.078;8.578;2022-10-29T07:08:46;18.00;;;7.93;;
12088;SDS011;6107;49.078;8.578;2022-10-29T07:11:12;16.30;;;8.63;;
12088;SDS011;6107;49.078;8.578;2022-10-29T07:13:41;18.97;;;11.17;;
12088;SDS011;6107;49.078;8.578;2022-10-29T07:16:06;18.37;;;11.23;;
12088;SDS011;6107;49.078;8.578;2022-10-29T07:18:32;33.40;;;16.33;;
12088;SDS011;6107;49.078;8.578;2022-10-29T07:20:58;38.37;;;17.27;;
12088;SDS011;6107;49.078;8.578;2022-10-29T07:23:25;45.03;;;19.07;;
12088;SDS011;6107;49.078;8.578;2022-10-29T07:25:51;38.47;;;17.67;;
12088;SDS011;6107;49.078;8.578;2022-10-29T07:28:18;34.87;;;16.03;;
12088;SDS011;6107;49.078;8.578;2022-10-29T07:30:45;29.93;;;17.00;;
12088;SDS011;6107;49.078;8.578;2022-10-29T07:33:12;33.13;;;18.27;;
12088;SDS011;6107;49.078;8.578;2022-10-29T07:35:39;29.47;;;17.97;;
12088;SDS011;6107;49.078;8.578;2022-10-29T07:38:06;28.37;;;14.77;;
12088;SDS011;6107;49.078;8.578;2022-10-29T07:40:33;25.03;;;13.00;;
12088;SDS011;6107;49.078;8.578;2022-10-29T07:42:59;20.03;;;11.00;;
12088;SDS011;6107;49.078;8.578;2022-10-29T07:45:24;18.90;;;10.53;;
12088;SDS011;6107;49.078;8.578;2022-10-29T07:48:03;14.23;;;9.27;;
12088;SDS011;6107;49.078;8.578;2022-10-29T07:50:33;21.30;;;10.13;;
12088;SDS011;6107;49.078;8.578;2022-10-29T07:53:00;15.13;;;8.40;;
12088;SDS011;6107;49.078;8.578;2022-10-29T07:55:27;23.90;;;9.60;;
12088;SDS011;6107;49.078;8.578;2022-10-29T07:57:59;13.70;;;8.13;;
12088;SDS011;6107;49.078;8.578;2022-10-29T08:00:31;16.47;;;8.30;;
12088;SDS011;6107;49.078;8.578;2022-10-29T08:03:00;18.33;;;9.90;;
12088;SDS011;6107;49.078;8.578;2022-10-29T08:05:26;16.50;;;8.60;;
12088;SDS011;6107;49.078;8.578;2022-10-29T08:07:53;19.27;;;8.87;;
12088;SDS011;6107;49.078;8.578;2022-10-29T08:10:19;20.57;;;8.50;;
12088;SDS011;6107;49.078;8.578;2022-10-29T08:12:49;15.83;;;7.83;;
12088;SDS011;6107;49.078;8.578;2022-10-29T08:15:15;13.73;;;7.63;;
12088;SDS011;6107;49.078;8.578;2022-10-29T08:17:41;16.53;;;7.73;;
12088;SDS011;6107;49.078;8.578;2022-10-29T08:20:06;14.07;;;6.63;;
12088;SDS011;6107;49.078;8.578;2022-10-29T08:22:33;14.27;;;6.90;;
12088;SDS011;6107;49.078;8.578;2022-10-29T08:24:58;17.50;;;6.60;;
12088;SDS011;6107;49.078;8.578;2022-10-29T08:27:24;15.43;;;7.30;;
12088;SDS011;6107;49.078;8.578;2022-10-29T08:32:17;10.25;;;6.18;;
12088;SDS011;6107;49.078;8.578;2022-10-29T08:34:43;15.40;;;6.38;;
12088;SDS011;6107;49.078;8.578;2022-10-29T08:37:08;11.95;;;5.35;;
12088;SDS011;6107;49.078;8.578;2022-10-29T08:39:34;16.98;;;5.63;;
12088;SDS011;6107;49.078;8.578;2022-10-29T08:42:03;12.73;;;5.50;;
12088;SDS011;6107;49.078;8.578;2022-10-29T08:47:21;13.65;;;4.75;;
12088;SDS011;6107;49.078;8.578;2022-10-29T08:50:02;13.55;;;5.40;;
12088;SDS011;6107;49.078;8.578;2022-10-29T08:52:49;10.18;;;5.43;;
12088;SDS011;6107;49.078;8.578;2022-10-29T08:55:17;15.15;;;5.07;;
12088;SDS011;6107;49.078;8.578;2022-10-29T08:57:52;9.43;;;4.97;;
12088;SDS011;6107;49.078;8.578;2022-10-29T09:00:20;10.90;;;5.82;;
12088;SDS011;6107;49.078;8.578;2022-10-29T09:02:53;10.45;;;5.10;;
12088;SDS011;6107;49.078;8.578;2022-10-29T09:05:21;13.38;;;5.30;;
12088;SDS011;6107;49.078;8.578;2022-10-29T09:08:36;9.30;;;5.22;;
12088;SDS011;6107;49.078;8.578;2022-10-29T09:14:08;11.02;;;4.90;;
12088;SDS011;6107;49.078;8.578;2022-10-29T09:19:40;10.52;;;4.63;;
12088;SDS011;6107;49.078;8.578;2022-10-29T09:22:21;8.23;;;4.80;;
12088;SDS011;6107;49.078;8.578;2022-10-29T09:25:16;16.95;;;6.60;;
12088;SDS011;6107;49.078;8.578;2022-10-29T09:30:47;25.23;;;10.68;;
12088;SDS011;6107;49.078;8.578;2022-10-29T09:33:33;17.73;;;6.90;;
12088;SDS011;6107;49.078;8.578;2022-10-29T09:35:58;13.68;;;4.68;;
12088;SDS011;6107;49.078;8.578;2022-10-29T09:38:28;8.95;;;4.00;;
12088;SDS011;6107;49.078;8.578;2022-10-29T09:41:00;23.27;;;7.47;;
12088;SDS011;6107;49.078;8.578;2022-10-29T09:48:53;12.80;;;5.07;;
12088;SDS011;6107;49.078;8.578;2022-10-29T09:51:44;11.70;;;4.40;;
12088;SDS011;6107;49.078;8.578;2022-10-29T09:54:22;10.20;;;4.47;;
12088;SDS011;6107;49.078;8.578;2022-10-29T09:56:49;13.25;;;4.63;;
12088;SDS011;6107;49.078;8.578;2022-10-29T09:59:17;9.85;;;4.70;;
12088;SDS011;6107;49.078;8.578;2022-10-29T10:01:45;10.30;;;4.97;;
12088;SDS011;6107;49.078;8.578;2022-10-29T10:04:14;10.30;;;4.60;;
12088;SDS011;6107;49.078;8.578;2022-10-29T10:09:48;9.30;;;4.32;;
12088;SDS011;6107;49.078;8.578;2022-10-29T10:12:20;12.52;;;4.38;;
12088;SDS011;6107;49.078;8.578;2022-10-29T10:14:48;10.23;;;4.30;;
12088;SDS011;6107;49.078;8.578;2022-10-29T10:17:25;14.95;;;7.28;;
12088;SDS011;6107;49.078;8.578;2022-10-29T10:19:50;17.70;;;5.80;;
12088;SDS011;6107;49.078;8.578;2022-10-29T10:22:20;18.08;;;7.90;;
12088;SDS011;6107;49.078;8.578;2022-10-29T10:24:48;14.23;;;5.93;;
12088;SDS011;6107;49.078;8.578;2022-10-29T10:29:42;11.45;;;5.13;;
12088;SDS011;6107;49.078;8.578;2022-10-29T10:32:10;7.78;;;4.10;;
12088;SDS011;6107;49.078;8.578;2022-10-29T10:34:41;11.68;;;4.50;;
12088;SDS011;6107;49.078;8.578;2022-10-29T10:39:46;18.52;;;6.47;;
12088;SDS011;6107;49.078;8.578;2022-10-29T10:42:26;25.67;;;10.52;;
12088;SDS011;6107;49.078;8.578;2022-10-29T10:44:58;16.13;;;5.28;;
12088;SDS011;6107;49.078;8.578;2022-10-29T10:47:28;11.55;;;4.80;;
12088;SDS011;6107;49.078;8.578;2022-10-29T10:52:50;30.80;;;10.65;;
12088;SDS011;6107;49.078;8.578;2022-10-29T10:55:20;14.02;;;5.18;;
12088;SDS011;6107;49.078;8.578;2022-10-29T10:58:03;19.25;;;7.32;;
12088;SDS011;6107;49.078;8.578;2022-10-29T11:03:40;17.08;;;5.53;;
12088;SDS011;6107;49.078;8.578;2022-10-29T11:06:19;16.00;;;6.32;;
12088;SDS011;6107;49.078;8.578;2022-10-29T11:11:29;15.10;;;5.55;;
12088;SDS011;6107;49.078;8.578;2022-10-29T11:13:59;11.43;;;4.45;;
12088;SDS011;6107;49.078;8.578;2022-10-29T11:16:36;24.10;;;6.78;;
12088;SDS011;6107;49.078;8.578;2022-10-29T11:21:45;14.98;;;6.10;;
12088;SDS011;6107;49.078;8.578;2022-10-29T11:27:23;10.23;;;4.90;;
12088;SDS011;6107;49.078;8.578;2022-10-29T11:32:19;17.25;;;6.10;;
12088;SDS011;6107;49.078;8.578;2022-10-29T11:40:12;10.63;;;4.90;;
12088;SDS011;6107;49.078;8.578;2022-10-29T11:42:40;16.70;;;6.30;;
12088;SDS011;6107;49.078;8.578;2022-10-29T11:45:09;12.15;;;5.07;;
12088;SDS011;6107;49.078;8.578;2022-10-29T11:55:51;9.00;;;4.53;;
12088;SDS011;6107;49.078;8.578;2022-10-29T11:58:39;13.23;;;4.22;;
12088;SDS011;6107;49.078;8.578;2022-10-29T12:01:19;12.10;;;5.47;;
12088;SDS011;6107;49.078;8.578;2022-10-29T12:06:53;10.80;;;4.82;;
12088;SDS011;6107;49.078;8.578;2022-10-29T12:12:43;13.10;;;4.22;;
12088;SDS011;6107;49.078;8.578;2022-10-29T12:18:43;11.93;;;4.50;;
12088;SDS011;6107;49.078;8.578;2022-10-29T12:23:58;12.32;;;5.28;;
12088;SDS011;6107;49.078;8.578;2022-10-29T12:32:20;12.07;;;5.78;;
12088;SDS011;6107;49.078;8.578;2022-10-29T12:37:19;14.43;;;6.68;;
12088;SDS011;6107;49.078;8.578;2022-10-29T12:39:47;19.27;;;7.18;;
12088;SDS011;6107;49.078;8.578;2022-10-29T12:42:24;15.30;;;5.45;;
12088;SDS011;6107;49.078;8.578;2022-10-29T12:45:12;14.30;;;5.90;;
12088;SDS011;6107;49.078;8.578;2022-10-29T12:48:01;12.65;;;4.80;;
12088;SDS011;6107;49.078;8.578;2022-10-29T12:50:40;9.23;;;4.90;;
12088;SDS011;6107;49.078;8.578;2022-10-29T12:55:52;7.70;;;4.40;;
12088;SDS011;6107;49.078;8.578;2022-10-29T13:09:23;11.13;;;4.88;;
12088;SDS011;6107;49.078;8.578;2022-10-29T13:11:52;15.00;;;5.13;;
12088;SDS011;6107;49.078;8.578;2022-10-29T13:16:56;8.30;;;4.25;;
12088;SDS011;6107;49.078;8.578;2022-10-29T13:30:32;12.07;;;4.35;;
12088;SDS011;6107;49.078;8.578;2022-10-29T13:32:59;14.40;;;4.60;;
12088;SDS011;6107;49.078;8.578;2022-10-29T13:37:54;11.77;;;4.53;;
12088;SDS011;6107;49.078;8.578;2022-10-29T13:45:44;12.13;;;4.95;;
12088;SDS011;6107;49.078;8.578;2022-10-29T13:48:23;10.98;;;4.45;;
12088;SDS011;6107;49.078;8.578;2022-10-29T13:50:52;14.48;;;4.90;;
12088;SDS011;6107;49.078;8.578;2022-10-29T13:53:22;14.38;;;4.88;;
12088;SDS011;6107;49.078;8.578;2022-10-29T13:55:55;10.63;;;4.53;;
12088;SDS011;6107;49.078;8.578;2022-10-29T13:58:26;9.73;;;4.85;;
12088;SDS011;6107;49.078;8.578;2022-10-29T14:00:58;11.75;;;4.38;;
12088;SDS011;6107;49.078;8.578;2022-10-29T14:06:17;11.10;;;4.57;;
12088;SDS011;6107;49.078;8.578;2022-10-29T14:09:21;17.58;;;4.82;;
12088;SDS011;6107;49.078;8.578;2022-10-29T14:11:40;11.75;;;4.78;;
12088;SDS011;6107;49.078;8.578;2022-10-29T14:14:20;10.93;;;4.45;;
12088;SDS011;6107;49.078;8.578;2022-10-29T14:19:47;13.43;;;5.07;;
12088;SDS011;6107;49.078;8.578;2022-10-29T14:24:51;10.68;;;4.65;;
12088;SDS011;6107;49.078;8.578;2022-10-29T14:27:16;10.75;;;4.60;;
12088;SDS011;6107;49.078;8.578;2022-10-29T14:29:42;11.75;;;4.70;;
12088;SDS011;6107;49.078;8.578;2022-10-29T14:32:14;9.27;;;4.65;;
12088;SDS011;6107;49.078;8.578;2022-10-29T14:34:43;10.32;;;4.65;;
12088;SDS011;6107;49.078;8.578;2022-10-29T14:37:29;13.02;;;5.35;;
12088;SDS011;6107;49.078;8.578;2022-10-29T14:39:58;15.60;;;4.93;;
12088;SDS011;6107;49.078;8.578;2022-10-29T14:42:53;10.75;;;4.60;;
12088;SDS011;6107;49.078;8.578;2022-10-29T14:45:22;13.35;;;4.63;;
12088;SDS011;6107;49.078;8.578;2022-10-29T14:47:53;18.05;;;5.00;;
12088;SDS011;6107;49.078;8.578;2022-10-29T14:50:22;9.95;;;4.90;;
12088;SDS011;6107;49.078;8.578;2022-10-29T14:53:25;12.00;;;5.10;;
12088;SDS011;6107;49.078;8.578;2022-10-29T14:56:08;16.08;;;4.82;;
12088;SDS011;6107;49.078;8.578;2022-10-29T14:58:42;12.63;;;5.20;;
12088;SDS011;6107;49.078;8.578;2022-10-29T15:01:11;8.60;;;4.60;;
12088;SDS011;6107;49.078;8.578;2022-10-29T15:03:39;10.93;;;4.97;;
12088;SDS011;6107;49.078;8.578;2022-10-29T15:08:46;10.30;;;5.00;;
12088;SDS011;6107;49.078;8.578;2022-10-29T15:11:40;12.07;;;4.88;;
12088;SDS011;6107;49.078;8.578;2022-10-29T15:17:12;12.27;;;5.28;;
12088;SDS011;6107;49.078;8.578;2022-10-29T15:19:46;12.23;;;4.68;;
12088;SDS011;6107;49.078;8.578;2022-10-29T15:22:20;12.38;;;5.35;;
12088;SDS011;6107;49.078;8.578;2022-10-29T15:25:15;8.95;;;4.90;;
12088;SDS011;6107;49.078;8.578;2022-10-29T15:27:47;12.90;;;4.68;;
12088;SDS011;6107;49.078;8.578;2022-10-29T15:30:19;8.60;;;4.55;;
12088;SDS011;6107;49.078;8.578;2022-10-29T15:32:46;25.45;;;5.65;;
12088;SDS011;6107;49.078;8.578;2022-10-29T15:35:17;15.15;;;5.32;;
12088;SDS011;6107;49.078;8.578;2022-10-29T15:37:44;19.13;;;5.10;;
12088;SDS011;6107;49.078;8.578;2022-10-29T15:42:40;11.50;;;5.53;;
12088;SDS011;6107;49.078;8.578;2022-10-29T15:47:40;16.17;;;5.18;;
12088;SDS011;6107;49.078;8.578;2022-10-29T15:50:11;14.02;;;5.65;;
12088;SDS011;6107;49.078;8.578;2022-10-29T15:52:42;11.50;;;4.68;;
12088;SDS011;6107;49.078;8.578;2022-10-29T15:55:25;12.40;;;4.80;;
12088;SDS011;6107;49.078;8.578;2022-10-29T15:57:54;12.02;;;5.28;;
12088;SDS011;6107;49.078;8.578;2022-10-29T16:00:24;17.13;;;5.93;;
12088;SDS011;6107;49.078;8.578;2022-10-29T16:02:49;12.10;;;5.00;;
12088;SDS011;6107;49.078;8.578;2022-10-29T16:05:15;17.30;;;5.25;;
12088;SDS011;6107;49.078;8.578;2022-10-29T16:07:42;10.57;;;4.82;;
12088;SDS011;6107;49.078;8.578;2022-10-29T16:10:16;12.48;;;5.43;;
12088;SDS011;6107;49.078;8.578;2022-10-29T16:12:44;12.35;;;5.28;;
12088;SDS011;6107;49.078;8.578;2022-10-29T16:15:11;10.70;;;5.30;;
12088;SDS011;6107;49.078;8.578;2022-10-29T16:17:38;13.68;;;4.57;;
12088;SDS011;6107;49.078;8.578;2022-10-29T16:20:04;12.80;;;5.18;;
12088;SDS011;6107;49.078;8.578;2022-10-29T16:22:30;9.75;;;5.03;;
12088;SDS011;6107;49.078;8.578;2022-10-29T16:24:55;10.98;;;5.40;;
12088;SDS011;6107;49.078;8.578;2022-10-29T16:27:21;14.93;;;5.15;;
12088;SDS011;6107;49.078;8.578;2022-10-29T16:29:46;12.18;;;5.03;;
12088;SDS011;6107;49.078;8.578;2022-10-29T16:32:14;10.18;;;5.00;;
12088;SDS011;6107;49.078;8.578;2022-10-29T16:34:41;15.20;;;4.75;;
12088;SDS011;6107;49.078;8.578;2022-10-29T16:37:14;13.70;;;4.78;;
12088;SDS011;6107;49.078;8.578;2022-10-29T16:42:28;15.82;;;5.85;;
12088;SDS011;6107;49.078;8.578;2022-10-29T16:44:57;15.30;;;4.97;;
12088;SDS011;6107;49.078;8.578;2022-10-29T16:47:22;12.43;;;5.03;;
12088;SDS011;6107;49.078;8.578;2022-10-29T16:49:48;16.95;;;5.53;;
12088;SDS011;6107;49.078;8.578;2022-10-29T16:52:13;15.07;;;5.10;;
12088;SDS011;6107;49.078;8.578;2022-10-29T16:54:39;14.73;;;5.35;;
12088;SDS011;6107;49.078;8.578;2022-10-29T16:57:04;16.52;;;5.25;;
12088;SDS011;6107;49.078;8.578;2022-10-29T16:59:30;14.73;;;5.65;;
12088;SDS011;6107;49.078;8.578;2022-10-29T17:01:55;11.07;;;5.32;;
12088;SDS011;6107;49.078;8.578;2022-10-29T17:04:21;12.60;;;5.55;;
12088;SDS011;6107;49.078;8.578;2022-10-29T17:06:47;11.82;;;5.30;;
12088;SDS011;6107;49.078;8.578;2022-10-29T17:09:13;12.10;;;5.47;;
12088;SDS011;6107;49.078;8.578;2022-10-29T17:11:39;11.48;;;4.88;;
12088;SDS011;6107;49.078;8.578;2022-10-29T17:14:05;11.13;;;5.18;;
12088;SDS011;6107;49.078;8.578;2022-10-29T17:16:30;13.90;;;5.70;;
12088;SDS011;6107;49.078;8.578;2022-10-29T17:18:56;11.68;;;5.68;;
12088;SDS011;6107;49.078;8.578;2022-10-29T17:21:22;12.02;;;5.43;;
12088;SDS011;6107;49.078;8.578;2022-10-29T17:23:48;13.32;;;5.20;;
12088;SDS011;6107;49.078;8.578;2022-10-29T17:26:14;12.77;;;5.38;;
12088;SDS011;6107;49.078;8.578;2022-10-29T17:28:40;9.23;;;5.10;;
12088;SDS011;6107;49.078;8.578;2022-10-29T17:31:09;13.10;;;5.82;;
12088;SDS011;6107;49.078;8.578;2022-10-29T17:33:37;12.40;;;4.95;;
12088;SDS011;6107;49.078;8.578;2022-10-29T17:36:09;12.38;;;5.13;;
12088;SDS011;6107;49.078;8.578;2022-10-29T17:38:36;12.63;;;5.30;;
12088;SDS011;6107;49.078;8.578;2022-10-29T17:41:01;12.80;;;5.97;;
12088;SDS011;6107;49.078;8.578;2022-10-29T17:43:27;14.70;;;5.72;;